sensor_id;sensor_type;location;lat;lon;timestamp;temperature;humidity
28087;DHT22;15392;48.912;8.380;2023-07-29T00:01:31;23.60;48.70
28087;DHT22;15392;48.912;8.380;2023-07-29T00:03:57;23.60;48.70
28087;DHT22;15392;48.912;8.380;2023-07-29T00:06:23;23.60;48.70
28087;DHT22;15392;48.912;8.380;2023-07-29T00:08:49;23.60;48.70
28087;DHT22;15392;48.912;8.380;2023-07-29T00:11:14;23.60;48.70
28087;DHT22;15392;48.912;8.380;2023-07-29T00:13:40;23.50;48.60
28087;DHT22;15392;48.912;8.380;2023-07-29T00:16:06;23.60;48.70
28087;DHT22;15392;48.912;8.380;2023-07-29T00:18:31;23.60;48.70
28087;DHT22;15392;48.912;8.380;2023-07-29T00:20:58;23.60;48.70
28087;DHT22;15392;48.912;8.380;2023-07-29T00:23:23;23.60;48.60
28087;DHT22;15392;48.912;8.380;2023-07-29T00:25:49;23.60;48.60
28087;DHT22;15392;48.912;8.380;2023-07-29T00:28:14;23.60;48.60
28087;DHT22;15392;48.912;8.380;2023-07-29T00:30:40;23.60;48.40
28087;DHT22;15392;48.912;8.380;2023-07-29T00:33:06;23.60;48.50
28087;DHT22;15392;48.912;8.380;2023-07-29T00:35:32;23.60;48.40
28087;DHT22;15392;48.912;8.380;2023-07-29T00:37:57;23.60;48.40
28087;DHT22;15392;48.912;8.380;2023-07-29T00:40:23;23.60;48.50
28087;DHT22;15392;48.912;8.380;2023-07-29T00:42:49;23.60;48.50
28087;DHT22;15392;48.912;8.380;2023-07-29T00:45:15;23.60;48.50
28087;DHT22;15392;48.912;8.380;2023-07-29T00:47:41;23.50;48.50
28087;DHT22;15392;48.912;8.380;2023-07-29T00:50:07;23.50;48.60
28087;DHT22;15392;48.912;8.380;2023-07-29T00:52:35;23.50;48.50
28087;DHT22;15392;48.912;8.380;2023-07-29T00:55:00;23.50;48.50
28087;DHT22;15392;48.912;8.380;2023-07-29T00:57:26;23.50;48.50
28087;DHT22;15392;48.912;8.380;2023-07-29T00:59:52;23.50;48.60
28087;DHT22;15392;48.912;8.380;2023-07-29T01:02:20;23.50;48.50
28087;DHT22;15392;48.912;8.380;2023-07-29T01:04:51;23.50;48.50
28087;DHT22;15392;48.912;8.380;2023-07-29T01:08:27;23.50;48.50
28087;DHT22;15392;48.912;8.380;2023-07-29T01:10:54;23.50;48.50
28087;DHT22;15392;48.912;8.380;2023-07-29T01:13:44;23.50;48.50
28087;DHT22;15392;48.912;8.380;2023-07-29T01:16:24;23.50;48.50
28087;DHT22;15392;48.912;8.380;2023-07-29T01:18:53;23.50;48.50
28087;DHT22;15392;48.912;8.380;2023-07-29T01:21:19;23.50;48.50
28087;DHT22;15392;48.912;8.380;2023-07-29T01:23:46;23.40;48.40
28087;DHT22;15392;48.912;8.380;2023-07-29T01:26:12;23.40;48.40
28087;DHT22;15392;48.912;8.380;2023-07-29T01:28:38;23.40;48.50
28087;DHT22;15392;48.912;8.380;2023-07-29T01:31:12;23.40;48.50
28087;DHT22;15392;48.912;8.380;2023-07-29T01:33:42;23.40;48.50
28087;DHT22;15392;48.912;8.380;2023-07-29T01:36:22;23.40;48.50
28087;DHT22;15392;48.912;8.380;2023-07-29T01:38:52;23.30;48.50
28087;DHT22;15392;48.912;8.380;2023-07-29T01:41:18;23.40;48.60
28087;DHT22;15392;48.912;8.380;2023-07-29T01:43:44;23.30;48.60
28087;DHT22;15392;48.912;8.380;2023-07-29T01:46:11;23.30;48.60
28087;DHT22;15392;48.912;8.380;2023-07-29T01:48:38;23.30;48.60
28087;DHT22;15392;48.912;8.380;2023-07-29T01:51:04;23.30;48.60
28087;DHT22;15392;48.912;8.380;2023-07-29T01:53:30;23.30;48.60
28087;DHT22;15392;48.912;8.380;2023-07-29T01:55:56;23.30;48.60
28087;DHT22;15392;48.912;8.380;2023-07-29T01:58:22;23.30;48.60
28087;DHT22;15392;48.912;8.380;2023-07-29T02:03:17;23.30;48.60
28087;DHT22;15392;48.912;8.380;2023-07-29T02:05:43;23.30;48.80
28087;DHT22;15392;48.912;8.380;2023-07-29T02:08:09;23.30;48.70
28087;DHT22;15392;48.912;8.380;2023-07-29T02:10:35;23.30;48.70
28087;DHT22;15392;48.912;8.380;2023-07-29T02:13:01;23.30;48.60
28087;DHT22;15392;48.912;8.380;2023-07-29T02:15:26;23.30;48.60
28087;DHT22;15392;48.912;8.380;2023-07-29T02:17:53;23.30;48.60
28087;DHT22;15392;48.912;8.380;2023-07-29T02:20:18;23.30;48.70
28087;DHT22;15392;48.912;8.380;2023-07-29T02:22:44;23.30;48.80
28087;DHT22;15392;48.912;8.380;2023-07-29T02:25:10;23.30;48.80
28087;DHT22;15392;48.912;8.380;2023-07-29T02:27:36;23.30;48.90
28087;DHT22;15392;48.912;8.380;2023-07-29T02:30:02;23.30;48.80
28087;DHT22;15392;48.912;8.380;2023-07-29T02:32:28;23.30;48.80
28087;DHT22;15392;48.912;8.380;2023-07-29T02:34:54;23.30;48.70
28087;DHT22;15392;48.912;8.380;2023-07-29T02:37:19;23.30;48.70
28087;DHT22;15392;48.912;8.380;2023-07-29T02:39:45;23.30;48.80
28087;DHT22;15392;48.912;8.380;2023-07-29T02:42:11;23.30;48.80
28087;DHT22;15392;48.912;8.380;2023-07-29T02:44:37;23.30;48.80
28087;DHT22;15392;48.912;8.380;2023-07-29T02:47:03;23.30;48.90
28087;DHT22;15392;48.912;8.380;2023-07-29T02:49:28;23.30;48.70
28087;DHT22;15392;48.912;8.380;2023-07-29T02:51:54;23.30;48.60
28087;DHT22;15392;48.912;8.380;2023-07-29T02:54:20;23.30;48.60
28087;DHT22;15392;48.912;8.380;2023-07-29T02:56:45;23.30;48.60
28087;DHT22;15392;48.912;8.380;2023-07-29T02:59:11;23.30;48.80
28087;DHT22;15392;48.912;8.380;2023-07-29T03:01:37;23.20;48.80
28087;DHT22;15392;48.912;8.380;2023-07-29T03:04:03;23.20;48.70
28087;DHT22;15392;48.912;8.380;2023-07-29T03:06:28;23.20;48.70
28087;DHT22;15392;48.912;8.380;2023-07-29T03:08:54;23.20;48.80
28087;DHT22;15392;48.912;8.380;2023-07-29T03:11:20;23.20;48.90
28087;DHT22;15392;48.912;8.380;2023-07-29T03:13:45;23.20;48.90
28087;DHT22;15392;48.912;8.380;2023-07-29T03:16:15;23.30;48.80
28087;DHT22;15392;48.912;8.380;2023-07-29T03:18:42;23.20;48.80
28087;DHT22;15392;48.912;8.380;2023-07-29T03:21:09;23.20;48.90
28087;DHT22;15392;48.912;8.380;2023-07-29T03:23:35;23.20;48.80
28087;DHT22;15392;48.912;8.380;2023-07-29T03:26:02;23.30;48.90
28087;DHT22;15392;48.912;8.380;2023-07-29T03:28:32;23.20;48.90
28087;DHT22;15392;48.912;8.380;2023-07-29T03:30:58;23.20;48.90
28087;DHT22;15392;48.912;8.380;2023-07-29T03:33:24;23.30;48.90
28087;DHT22;15392;48.912;8.380;2023-07-29T03:35:51;23.20;48.80
28087;DHT22;15392;48.912;8.380;2023-07-29T03:38:17;23.20;48.80
28087;DHT22;15392;48.912;8.380;2023-07-29T03:40:43;23.20;49.20
28087;DHT22;15392;48.912;8.380;2023-07-29T03:43:08;23.20;49.80
28087;DHT22;15392;48.912;8.380;2023-07-29T03:45:34;23.20;49.40
28087;DHT22;15392;48.912;8.380;2023-07-29T03:48:01;23.20;49.10
28087;DHT22;15392;48.912;8.380;2023-07-29T03:50:27;23.20;49.00
28087;DHT22;15392;48.912;8.380;2023-07-29T03:52:53;23.20;48.90
28087;DHT22;15392;48.912;8.380;2023-07-29T03:55:19;23.20;48.90
28087;DHT22;15392;48.912;8.380;2023-07-29T03:57:45;23.20;49.80
28087;DHT22;15392;48.912;8.380;2023-07-29T04:00:10;23.20;49.00
28087;DHT22;15392;48.912;8.380;2023-07-29T04:02:36;23.20;49.20
28087;DHT22;15392;48.912;8.380;2023-07-29T04:05:03;23.20;49.10
28087;DHT22;15392;48.912;8.380;2023-07-29T04:07:29;23.20;49.30
28087;DHT22;15392;48.912;8.380;2023-07-29T04:09:55;23.20;49.50
28087;DHT22;15392;48.912;8.380;2023-07-29T04:12:22;23.20;49.40
28087;DHT22;15392;48.912;8.380;2023-07-29T04:14:48;23.20;49.30
28087;DHT22;15392;48.912;8.380;2023-07-29T04:17:14;23.20;49.20
28087;DHT22;15392;48.912;8.380;2023-07-29T04:19:40;23.20;49.20
28087;DHT22;15392;48.912;8.380;2023-07-29T04:22:06;23.20;49.20
28087;DHT22;15392;48.912;8.380;2023-07-29T04:24:31;23.20;49.20
28087;DHT22;15392;48.912;8.380;2023-07-29T04:26:57;23.20;49.30
28087;DHT22;15392;48.912;8.380;2023-07-29T04:29:23;23.20;49.30
28087;DHT22;15392;48.912;8.380;2023-07-29T04:31:49;23.20;49.30
28087;DHT22;15392;48.912;8.380;2023-07-29T04:34:15;23.20;49.30
28087;DHT22;15392;48.912;8.380;2023-07-29T04:36:41;23.30;49.30
28087;DHT22;15392;48.912;8.380;2023-07-29T04:39:07;23.20;49.20
28087;DHT22;15392;48.912;8.380;2023-07-29T04:41:33;23.30;49.20
28087;DHT22;15392;48.912;8.380;2023-07-29T04:43:58;23.30;49.20
28087;DHT22;15392;48.912;8.380;2023-07-29T04:46:25;23.30;49.20
28087;DHT22;15392;48.912;8.380;2023-07-29T04:48:51;23.30;49.20
28087;DHT22;15392;48.912;8.380;2023-07-29T04:51:16;23.30;49.20
28087;DHT22;15392;48.912;8.380;2023-07-29T04:53:42;23.30;49.20
28087;DHT22;15392;48.912;8.380;2023-07-29T04:56:08;23.30;49.20
28087;DHT22;15392;48.912;8.380;2023-07-29T04:58:33;23.40;49.30
28087;DHT22;15392;48.912;8.380;2023-07-29T05:01:01;23.30;49.20
28087;DHT22;15392;48.912;8.380;2023-07-29T05:03:27;23.40;49.30
28087;DHT22;15392;48.912;8.380;2023-07-29T05:05:53;23.40;49.20
28087;DHT22;15392;48.912;8.380;2023-07-29T05:08:21;23.40;49.30
28087;DHT22;15392;48.912;8.380;2023-07-29T05:10:50;23.40;49.30
28087;DHT22;15392;48.912;8.380;2023-07-29T05:13:17;23.50;49.40
28087;DHT22;15392;48.912;8.380;2023-07-29T05:15:43;23.40;49.30
28087;DHT22;15392;48.912;8.380;2023-07-29T05:18:08;23.50;49.30
28087;DHT22;15392;48.912;8.380;2023-07-29T05:20:35;23.50;49.40
28087;DHT22;15392;48.912;8.380;2023-07-29T05:23:00;23.50;49.40
28087;DHT22;15392;48.912;8.380;2023-07-29T05:25:26;23.50;49.40
28087;DHT22;15392;48.912;8.380;2023-07-29T05:27:52;23.50;49.30
28087;DHT22;15392;48.912;8.380;2023-07-29T05:30:18;23.60;49.40
28087;DHT22;15392;48.912;8.380;2023-07-29T05:32:44;23.60;49.40
28087;DHT22;15392;48.912;8.380;2023-07-29T05:35:09;23.60;49.40
28087;DHT22;15392;48.912;8.380;2023-07-29T05:37:37;23.70;49.40
28087;DHT22;15392;48.912;8.380;2023-07-29T05:40:04;23.70;49.30
28087;DHT22;15392;48.912;8.380;2023-07-29T05:42:30;23.70;49.40
28087;DHT22;15392;48.912;8.380;2023-07-29T05:44:56;23.80;49.50
28087;DHT22;15392;48.912;8.380;2023-07-29T05:47:21;23.70;49.40
28087;DHT22;15392;48.912;8.380;2023-07-29T05:49:47;23.80;49.50
28087;DHT22;15392;48.912;8.380;2023-07-29T05:52:12;23.80;49.50
28087;DHT22;15392;48.912;8.380;2023-07-29T05:54:38;23.80;49.50
28087;DHT22;15392;48.912;8.380;2023-07-29T05:57:04;23.90;49.50
28087;DHT22;15392;48.912;8.380;2023-07-29T05:59:30;23.90;49.50
28087;DHT22;15392;48.912;8.380;2023-07-29T06:01:55;23.90;49.50
28087;DHT22;15392;48.912;8.380;2023-07-29T06:04:21;23.90;49.50
28087;DHT22;15392;48.912;8.380;2023-07-29T06:06:47;24.00;49.50
28087;DHT22;15392;48.912;8.380;2023-07-29T06:09:13;24.00;49.50
28087;DHT22;15392;48.912;8.380;2023-07-29T06:11:38;24.00;49.40
28087;DHT22;15392;48.912;8.380;2023-07-29T06:14:04;24.00;49.50
28087;DHT22;15392;48.912;8.380;2023-07-29T06:16:30;24.10;49.50
28087;DHT22;15392;48.912;8.380;2023-07-29T06:18:56;24.10;49.50
28087;DHT22;15392;48.912;8.380;2023-07-29T06:21:22;24.10;49.40
28087;DHT22;15392;48.912;8.380;2023-07-29T06:23:48;24.10;49.70
28087;DHT22;15392;48.912;8.380;2023-07-29T06:26:14;24.10;49.40
28087;DHT22;15392;48.912;8.380;2023-07-29T06:28:40;24.20;49.40
28087;DHT22;15392;48.912;8.380;2023-07-29T06:31:06;24.20;49.80
28087;DHT22;15392;48.912;8.380;2023-07-29T06:33:32;24.20;50.00
28087;DHT22;15392;48.912;8.380;2023-07-29T06:35:57;24.20;50.20
28087;DHT22;15392;48.912;8.380;2023-07-29T06:38:23;24.20;50.00
28087;DHT22;15392;48.912;8.380;2023-07-29T06:40:49;24.20;50.40
28087;DHT22;15392;48.912;8.380;2023-07-29T06:43:16;24.20;50.30
28087;DHT22;15392;48.912;8.380;2023-07-29T06:45:42;24.10;50.00
28087;DHT22;15392;48.912;8.380;2023-07-29T06:48:09;24.20;50.00
28087;DHT22;15392;48.912;8.380;2023-07-29T06:50:35;24.20;50.80
28087;DHT22;15392;48.912;8.380;2023-07-29T06:53:00;24.20;51.00
28087;DHT22;15392;48.912;8.380;2023-07-29T06:55:26;24.20;50.50
28087;DHT22;15392;48.912;8.380;2023-07-29T06:57:52;24.20;50.60
28087;DHT22;15392;48.912;8.380;2023-07-29T07:00:17;24.20;50.30
28087;DHT22;15392;48.912;8.380;2023-07-29T07:02:43;24.20;50.10
28087;DHT22;15392;48.912;8.380;2023-07-29T07:05:09;24.20;50.50
28087;DHT22;15392;48.912;8.380;2023-07-29T07:07:34;24.20;50.80
28087;DHT22;15392;48.912;8.380;2023-07-29T07:10:00;24.20;50.20
28087;DHT22;15392;48.912;8.380;2023-07-29T07:12:26;24.20;50.70
28087;DHT22;15392;48.912;8.380;2023-07-29T07:14:52;24.20;51.10
28087;DHT22;15392;48.912;8.380;2023-07-29T07:17:17;24.30;50.90
28087;DHT22;15392;48.912;8.380;2023-07-29T07:19:43;24.30;50.40
28087;DHT22;15392;48.912;8.380;2023-07-29T07:22:09;24.30;50.30
28087;DHT22;15392;48.912;8.380;2023-07-29T07:24:35;24.30;50.40
28087;DHT22;15392;48.912;8.380;2023-07-29T07:27:00;24.40;51.40
28087;DHT22;15392;48.912;8.380;2023-07-29T07:29:27;24.40;52.00
28087;DHT22;15392;48.912;8.380;2023-07-29T07:31:53;24.50;52.00
28087;DHT22;15392;48.912;8.380;2023-07-29T07:34:20;24.60;51.40
28087;DHT22;15392;48.912;8.380;2023-07-29T07:36:46;24.60;51.40
28087;DHT22;15392;48.912;8.380;2023-07-29T07:39:12;24.70;51.60
28087;DHT22;15392;48.912;8.380;2023-07-29T07:41:39;24.80;51.40
28087;DHT22;15392;48.912;8.380;2023-07-29T07:44:05;25.00;52.40
28087;DHT22;15392;48.912;8.380;2023-07-29T07:46:32;25.20;53.00
28087;DHT22;15392;48.912;8.380;2023-07-29T07:49:06;25.40;53.20
28087;DHT22;15392;48.912;8.380;2023-07-29T07:51:44;25.60;53.20
28087;DHT22;15392;48.912;8.380;2023-07-29T07:54:16;25.80;52.70
28087;DHT22;15392;48.912;8.380;2023-07-29T07:56:46;26.00;51.90
28087;DHT22;15392;48.912;8.380;2023-07-29T07:59:12;26.10;51.40
28087;DHT22;15392;48.912;8.380;2023-07-29T08:01:38;26.10;51.20
28087;DHT22;15392;48.912;8.380;2023-07-29T08:04:04;26.10;50.40
28087;DHT22;15392;48.912;8.380;2023-07-29T08:06:31;26.20;50.30
28087;DHT22;15392;48.912;8.380;2023-07-29T08:08:58;26.10;50.40
28087;DHT22;15392;48.912;8.380;2023-07-29T08:11:25;26.10;49.90
28087;DHT22;15392;48.912;8.380;2023-07-29T08:13:52;26.20;50.00
28087;DHT22;15392;48.912;8.380;2023-07-29T08:16:18;26.20;49.80
28087;DHT22;15392;48.912;8.380;2023-07-29T08:18:43;26.30;49.70
28087;DHT22;15392;48.912;8.380;2023-07-29T08:21:09;26.30;50.10
28087;DHT22;15392;48.912;8.380;2023-07-29T08:23:35;26.40;50.10
28087;DHT22;15392;48.912;8.380;2023-07-29T08:26:08;26.40;49.60
28087;DHT22;15392;48.912;8.380;2023-07-29T08:28:36;26.40;51.60
28087;DHT22;15392;48.912;8.380;2023-07-29T08:31:04;26.40;50.00
28087;DHT22;15392;48.912;8.380;2023-07-29T08:33:31;26.40;49.60
28087;DHT22;15392;48.912;8.380;2023-07-29T08:35:59;26.40;49.60
28087;DHT22;15392;48.912;8.380;2023-07-29T08:38:24;26.40;49.30
28087;DHT22;15392;48.912;8.380;2023-07-29T08:43:29;26.40;49.50
28087;DHT22;15392;48.912;8.380;2023-07-29T08:45:58;26.40;49.30
28087;DHT22;15392;48.912;8.380;2023-07-29T08:48:41;26.40;50.10
28087;DHT22;15392;48.912;8.380;2023-07-29T08:51:08;26.40;50.40
28087;DHT22;15392;48.912;8.380;2023-07-29T08:53:35;26.40;50.40
28087;DHT22;15392;48.912;8.380;2023-07-29T08:56:08;26.30;50.30
28087;DHT22;15392;48.912;8.380;2023-07-29T09:02:01;26.10;49.90
28087;DHT22;15392;48.912;8.380;2023-07-29T09:04:27;26.10;50.20
28087;DHT22;15392;48.912;8.380;2023-07-29T09:06:57;26.00;50.20
28087;DHT22;15392;48.912;8.380;2023-07-29T09:09:28;25.90;50.90
28087;DHT22;15392;48.912;8.380;2023-07-29T09:15:29;25.80;51.10
28087;DHT22;15392;48.912;8.380;2023-07-29T09:18:14;25.70;50.70
28087;DHT22;15392;48.912;8.380;2023-07-29T09:20:42;25.60;50.60
28087;DHT22;15392;48.912;8.380;2023-07-29T09:23:11;25.60;51.10
28087;DHT22;15392;48.912;8.380;2023-07-29T09:25:49;25.60;51.80
28087;DHT22;15392;48.912;8.380;2023-07-29T09:28:18;25.70;51.80
28087;DHT22;15392;48.912;8.380;2023-07-29T09:30:45;25.70;52.50
28087;DHT22;15392;48.912;8.380;2023-07-29T09:33:12;25.80;52.70
28087;DHT22;15392;48.912;8.380;2023-07-29T09:35:38;25.90;52.20
28087;DHT22;15392;48.912;8.380;2023-07-29T09:38:04;26.00;53.60
28087;DHT22;15392;48.912;8.380;2023-07-29T09:40:35;26.10;53.70
28087;DHT22;15392;48.912;8.380;2023-07-29T09:43:06;26.30;53.20
28087;DHT22;15392;48.912;8.380;2023-07-29T09:46:01;26.50;52.10
28087;DHT22;15392;48.912;8.380;2023-07-29T09:55:26;27.00;51.70
28087;DHT22;15392;48.912;8.380;2023-07-29T09:58:02;27.00;51.00
28087;DHT22;15392;48.912;8.380;2023-07-29T10:00:39;27.10;51.70
28087;DHT22;15392;48.912;8.380;2023-07-29T10:03:08;27.10;50.90
28087;DHT22;15392;48.912;8.380;2023-07-29T10:05:34;27.10;50.60
28087;DHT22;15392;48.912;8.380;2023-07-29T10:08:01;27.10;51.00
28087;DHT22;15392;48.912;8.380;2023-07-29T10:10:27;27.00;50.00
28087;DHT22;15392;48.912;8.380;2023-07-29T10:12:54;27.00;50.10
28087;DHT22;15392;48.912;8.380;2023-07-29T10:15:20;27.00;50.10
28087;DHT22;15392;48.912;8.380;2023-07-29T10:17:46;27.00;50.20
28087;DHT22;15392;48.912;8.380;2023-07-29T10:20:12;26.90;49.90
28087;DHT22;15392;48.912;8.380;2023-07-29T10:22:43;26.90;50.60
28087;DHT22;15392;48.912;8.380;2023-07-29T10:25:19;26.90;50.60
28087;DHT22;15392;48.912;8.380;2023-07-29T10:30:14;26.90;50.10
28087;DHT22;15392;48.912;8.380;2023-07-29T10:32:41;26.90;49.90
28087;DHT22;15392;48.912;8.380;2023-07-29T10:35:09;26.90;49.60
28087;DHT22;15392;48.912;8.380;2023-07-29T10:37:40;26.90;49.90
28087;DHT22;15392;48.912;8.380;2023-07-29T10:40:08;26.90;50.00
28087;DHT22;15392;48.912;8.380;2023-07-29T10:42:35;26.90;50.00
28087;DHT22;15392;48.912;8.380;2023-07-29T10:45:18;27.00;50.40
28087;DHT22;15392;48.912;8.380;2023-07-29T10:47:44;27.00;50.50
28087;DHT22;15392;48.912;8.380;2023-07-29T10:50:23;27.00;50.40
28087;DHT22;15392;48.912;8.380;2023-07-29T10:52:49;27.00;51.10
28087;DHT22;15392;48.912;8.380;2023-07-29T10:55:30;27.10;51.00
28087;DHT22;15392;48.912;8.380;2023-07-29T11:00:53;27.10;51.20
28087;DHT22;15392;48.912;8.380;2023-07-29T11:03:19;27.20;50.60
28087;DHT22;15392;48.912;8.380;2023-07-29T11:05:48;27.20;50.30
28087;DHT22;15392;48.912;8.380;2023-07-29T11:13:28;27.30;50.50
28087;DHT22;15392;48.912;8.380;2023-07-29T11:15:56;27.30;50.60
28087;DHT22;15392;48.912;8.380;2023-07-29T11:18:35;27.40;51.30
28087;DHT22;15392;48.912;8.380;2023-07-29T11:21:02;27.40;51.90
28087;DHT22;15392;48.912;8.380;2023-07-29T11:23:30;27.40;50.70
28087;DHT22;15392;48.912;8.380;2023-07-29T11:26:05;27.50;50.40
28087;DHT22;15392;48.912;8.380;2023-07-29T11:28:37;27.50;50.40
28087;DHT22;15392;48.912;8.380;2023-07-29T11:31:08;27.60;49.90
28087;DHT22;15392;48.912;8.380;2023-07-29T11:33:40;27.60;49.60
28087;DHT22;15392;48.912;8.380;2023-07-29T11:36:06;27.70;49.80
28087;DHT22;15392;48.912;8.380;2023-07-29T11:38:32;27.70;49.40
28087;DHT22;15392;48.912;8.380;2023-07-29T11:41:02;27.80;50.50
28087;DHT22;15392;48.912;8.380;2023-07-29T11:43:35;27.80;49.90
28087;DHT22;15392;48.912;8.380;2023-07-29T11:46:04;27.90;49.80
28087;DHT22;15392;48.912;8.380;2023-07-29T11:48:34;27.90;49.50
28087;DHT22;15392;48.912;8.380;2023-07-29T11:51:00;28.00;49.10
28087;DHT22;15392;48.912;8.380;2023-07-29T11:53:29;28.10;48.90
28087;DHT22;15392;48.912;8.380;2023-07-29T11:55:58;28.20;48.70
28087;DHT22;15392;48.912;8.380;2023-07-29T11:58:24;28.20;48.50
28087;DHT22;15392;48.912;8.380;2023-07-29T12:00:50;28.20;48.50
28087;DHT22;15392;48.912;8.380;2023-07-29T12:03:16;28.30;48.40
28087;DHT22;15392;48.912;8.380;2023-07-29T12:05:43;28.30;48.40
28087;DHT22;15392;48.912;8.380;2023-07-29T12:08:10;28.40;47.90
28087;DHT22;15392;48.912;8.380;2023-07-29T12:10:37;28.50;47.70
28087;DHT22;15392;48.912;8.380;2023-07-29T12:13:03;28.50;47.70
28087;DHT22;15392;48.912;8.380;2023-07-29T12:15:29;28.50;47.70
28087;DHT22;15392;48.912;8.380;2023-07-29T12:17:58;28.60;47.50
28087;DHT22;15392;48.912;8.380;2023-07-29T12:20:25;28.70;47.30
28087;DHT22;15392;48.912;8.380;2023-07-29T12:22:55;28.60;46.40
28087;DHT22;15392;48.912;8.380;2023-07-29T12:25:27;28.70;46.50
28087;DHT22;15392;48.912;8.380;2023-07-29T12:27:54;28.70;46.40
28087;DHT22;15392;48.912;8.380;2023-07-29T12:30:20;28.70;46.40
28087;DHT22;15392;48.912;8.380;2023-07-29T12:32:47;28.80;46.60
28087;DHT22;15392;48.912;8.380;2023-07-29T12:35:13;28.90;46.90
28087;DHT22;15392;48.912;8.380;2023-07-29T12:37:40;28.90;46.90
28087;DHT22;15392;48.912;8.380;2023-07-29T12:40:23;29.00;47.00
28087;DHT22;15392;48.912;8.380;2023-07-29T12:42:50;29.10;47.00
28087;DHT22;15392;48.912;8.380;2023-07-29T12:45:18;29.10;46.80
28087;DHT22;15392;48.912;8.380;2023-07-29T12:47:44;29.20;46.20
28087;DHT22;15392;48.912;8.380;2023-07-29T12:50:10;29.30;46.70
28087;DHT22;15392;48.912;8.380;2023-07-29T12:52:39;29.30;46.20
28087;DHT22;15392;48.912;8.380;2023-07-29T12:55:05;29.40;45.70
28087;DHT22;15392;48.912;8.380;2023-07-29T12:57:40;29.40;46.00
28087;DHT22;15392;48.912;8.380;2023-07-29T13:00:08;29.40;45.80
28087;DHT22;15392;48.912;8.380;2023-07-29T13:02:34;29.50;45.00
28087;DHT22;15392;48.912;8.380;2023-07-29T13:05:00;29.50;45.80
28087;DHT22;15392;48.912;8.380;2023-07-29T13:07:26;29.50;46.00
28087;DHT22;15392;48.912;8.380;2023-07-29T13:09:52;29.50;46.00
28087;DHT22;15392;48.912;8.380;2023-07-29T13:12:18;29.60;45.90
28087;DHT22;15392;48.912;8.380;2023-07-29T13:14:44;29.60;45.70
28087;DHT22;15392;48.912;8.380;2023-07-29T13:17:12;29.60;45.30
28087;DHT22;15392;48.912;8.380;2023-07-29T13:19:38;29.70;45.70
28087;DHT22;15392;48.912;8.380;2023-07-29T13:22:04;29.70;45.50
28087;DHT22;15392;48.912;8.380;2023-07-29T13:24:32;29.70;45.20
28087;DHT22;15392;48.912;8.380;2023-07-29T13:27:03;29.80;45.20
28087;DHT22;15392;48.912;8.380;2023-07-29T13:29:36;29.80;44.60
28087;DHT22;15392;48.912;8.380;2023-07-29T13:32:04;29.90;44.60
28087;DHT22;15392;48.912;8.380;2023-07-29T13:34:40;29.90;44.50
28087;DHT22;15392;48.912;8.380;2023-07-29T13:37:07;29.90;44.60
28087;DHT22;15392;48.912;8.380;2023-07-29T13:39:36;30.00;44.10
28087;DHT22;15392;48.912;8.380;2023-07-29T13:42:07;30.00;44.60
28087;DHT22;15392;48.912;8.380;2023-07-29T13:44:36;30.00;44.10
28087;DHT22;15392;48.912;8.380;2023-07-29T13:47:02;30.10;45.00
28087;DHT22;15392;48.912;8.380;2023-07-29T13:49:29;30.10;44.70
28087;DHT22;15392;48.912;8.380;2023-07-29T13:51:57;30.10;44.80
28087;DHT22;15392;48.912;8.380;2023-07-29T13:54:23;30.10;45.00
28087;DHT22;15392;48.912;8.380;2023-07-29T13:56:49;30.10;45.10
28087;DHT22;15392;48.912;8.380;2023-07-29T13:59:15;30.20;44.80
28087;DHT22;15392;48.912;8.380;2023-07-29T14:01:41;30.20;44.30
28087;DHT22;15392;48.912;8.380;2023-07-29T14:04:08;30.20;44.40
28087;DHT22;15392;48.912;8.380;2023-07-29T14:06:53;30.20;44.60
28087;DHT22;15392;48.912;8.380;2023-07-29T14:09:21;30.30;45.10
28087;DHT22;15392;48.912;8.380;2023-07-29T14:11:50;30.30;44.90
28087;DHT22;15392;48.912;8.380;2023-07-29T14:14:17;30.30;44.80
28087;DHT22;15392;48.912;8.380;2023-07-29T14:16:43;30.30;45.00
28087;DHT22;15392;48.912;8.380;2023-07-29T14:19:13;30.40;45.00
28087;DHT22;15392;48.912;8.380;2023-07-29T14:21:38;30.40;45.10
28087;DHT22;15392;48.912;8.380;2023-07-29T14:24:05;30.40;44.60
28087;DHT22;15392;48.912;8.380;2023-07-29T14:26:33;30.40;44.50
28087;DHT22;15392;48.912;8.380;2023-07-29T14:28:59;30.40;45.00
28087;DHT22;15392;48.912;8.380;2023-07-29T14:31:25;30.40;45.30
28087;DHT22;15392;48.912;8.380;2023-07-29T14:33:53;30.50;44.90
28087;DHT22;15392;48.912;8.380;2023-07-29T14:36:18;30.40;44.70
28087;DHT22;15392;48.912;8.380;2023-07-29T14:38:45;30.40;44.80
28087;DHT22;15392;48.912;8.380;2023-07-29T14:41:12;30.50;45.00
28087;DHT22;15392;48.912;8.380;2023-07-29T14:43:38;30.50;44.90
28087;DHT22;15392;48.912;8.380;2023-07-29T14:46:04;30.50;44.30
28087;DHT22;15392;48.912;8.380;2023-07-29T14:48:30;30.40;44.10
28087;DHT22;15392;48.912;8.380;2023-07-29T14:50:57;30.50;43.90
28087;DHT22;15392;48.912;8.380;2023-07-29T14:53:26;30.40;44.00
28087;DHT22;15392;48.912;8.380;2023-07-29T14:55:53;30.40;44.40
28087;DHT22;15392;48.912;8.380;2023-07-29T14:58:23;30.40;44.30
28087;DHT22;15392;48.912;8.380;2023-07-29T15:00:51;30.40;44.00
28087;DHT22;15392;48.912;8.380;2023-07-29T15:03:19;30.40;43.70
28087;DHT22;15392;48.912;8.380;2023-07-29T15:05:49;30.40;44.20
28087;DHT22;15392;48.912;8.380;2023-07-29T15:08:15;30.40;44.60
28087;DHT22;15392;48.912;8.380;2023-07-29T15:10:47;30.40;44.70
28087;DHT22;15392;48.912;8.380;2023-07-29T15:13:14;30.40;44.40
28087;DHT22;15392;48.912;8.380;2023-07-29T15:15:40;30.50;44.80
28087;DHT22;15392;48.912;8.380;2023-07-29T15:18:26;30.50;44.00
28087;DHT22;15392;48.912;8.380;2023-07-29T15:20:56;30.50;44.50
28087;DHT22;15392;48.912;8.380;2023-07-29T15:23:27;30.40;44.70
28087;DHT22;15392;48.912;8.380;2023-07-29T15:25:54;30.50;45.00
28087;DHT22;15392;48.912;8.380;2023-07-29T15:28:22;30.40;45.10
28087;DHT22;15392;48.912;8.380;2023-07-29T15:30:48;30.50;45.20
28087;DHT22;15392;48.912;8.380;2023-07-29T15:33:29;30.50;44.60
28087;DHT22;15392;48.912;8.380;2023-07-29T15:35:55;30.50;44.30
28087;DHT22;15392;48.912;8.380;2023-07-29T15:38:20;30.50;44.50
28087;DHT22;15392;48.912;8.380;2023-07-29T15:40:47;30.50;44.50
28087;DHT22;15392;48.912;8.380;2023-07-29T15:43:14;30.50;44.50
28087;DHT22;15392;48.912;8.380;2023-07-29T15:45:40;30.50;44.00
28087;DHT22;15392;48.912;8.380;2023-07-29T15:48:09;30.50;44.20
28087;DHT22;15392;48.912;8.380;2023-07-29T15:50:35;30.50;44.80
28087;DHT22;15392;48.912;8.380;2023-07-29T15:53:01;30.50;44.90
28087;DHT22;15392;48.912;8.380;2023-07-29T15:55:31;30.50;44.90
28087;DHT22;15392;48.912;8.380;2023-07-29T15:57:57;30.50;44.00
28087;DHT22;15392;48.912;8.380;2023-07-29T16:00:23;30.50;44.30
28087;DHT22;15392;48.912;8.380;2023-07-29T16:02:57;30.50;44.60